createdAt,value
2018-07-14T00:01:26.409Z,62.50
2018-07-14T00:03:57.967Z,62.60
2018-07-14T00:06:28.610Z,62.50
2018-07-14T00:08:58.926Z,62.80
2018-07-14T00:11:29.513Z,63.10
2018-07-14T00:13:59.809Z,63.60
2018-07-14T00:16:30.052Z,63.50
2018-07-14T00:19:00.379Z,63.60
2018-07-14T00:21:30.745Z,63.70
2018-07-14T00:24:01.023Z,63.90
2018-07-14T00:26:31.370Z,64.10
2018-07-14T00:29:01.660Z,64.20
2018-07-14T00:31:31.997Z,64.00
2018-07-14T00:34:02.530Z,64.00
2018-07-14T00:36:32.976Z,63.80
2018-07-14T00:39:03.492Z,63.50
2018-07-14T00:41:33.934Z,63.70
2018-07-14T00:44:04.455Z,63.40
2018-07-14T00:46:35.247Z,63.40
2018-07-14T00:49:06.109Z,63.70
2018-07-14T00:51:36.918Z,63.70
2018-07-14T00:54:07.415Z,63.70
2018-07-14T00:56:37.910Z,63.90
2018-07-14T00:59:08.443Z,64.00
2018-07-14T01:01:38.875Z,64.20
2018-07-14T01:04:09.527Z,64.30
2018-07-14T01:06:40.093Z,65.00
2018-07-14T01:09:10.734Z,64.10
2018-07-14T01:11:41.180Z,64.10
2018-07-14T01:14:11.631Z,64.00
2018-07-14T01:16:42.037Z,63.80
2018-07-14T01:19:12.327Z,63.80
2018-07-14T01:21:42.739Z,63.70
2018-07-14T01:24:12.978Z,63.30
2018-07-14T01:26:45.193Z,63.10
2018-07-14T01:29:15.764Z,63.00
2018-07-14T01:31:47.684Z,63.10
2018-07-14T01:34:17.922Z,63.40
2018-07-14T01:36:55.267Z,63.40
2018-07-14T01:39:25.963Z,63.50
2018-07-14T01:41:56.624Z,63.60
2018-07-14T01:44:27.031Z,63.50
2018-07-14T01:46:57.574Z,63.50
2018-07-14T01:49:28.343Z,63.40
2018-07-14T01:51:59.029Z,63.40
2018-07-14T01:54:29.379Z,63.50
2018-07-14T01:57:00.176Z,63.60
2018-07-14T01:59:30.517Z,63.60
2018-07-14T02:02:00.982Z,63.70
2018-07-14T02:04:32.959Z,63.50
2018-07-14T02:07:06.746Z,63.60
2018-07-14T02:09:37.912Z,63.50
2018-07-14T02:12:10.076Z,63.40
2018-07-14T02:14:40.320Z,63.70
2018-07-14T02:17:10.574Z,64.00
2018-07-14T02:19:41.216Z,63.90
2018-07-14T02:23:14.717Z,63.80
2018-07-14T02:25:45.131Z,63.80
2018-07-14T02:28:15.410Z,64.20
2018-07-14T02:30:45.710Z,64.20
2018-07-14T02:33:15.986Z,64.30
2018-07-14T02:35:46.332Z,64.50
2018-07-14T02:38:16.618Z,64.50
2018-07-14T02:40:46.798Z,64.50
2018-07-14T02:43:17.023Z,64.60
2018-07-14T02:45:47.479Z,64.50
2018-07-14T02:48:17.806Z,64.50
2018-07-14T02:50:48.023Z,64.40
2018-07-14T02:53:18.339Z,64.50
2018-07-14T02:55:48.878Z,64.50
2018-07-14T02:58:19.484Z,64.60
2018-07-14T03:00:49.894Z,64.70
2018-07-14T03:03:20.637Z,64.80
2018-07-14T03:05:51.159Z,64.90
2018-07-14T03:08:21.450Z,65.10
2018-07-14T03:10:51.905Z,65.30
2018-07-14T03:13:22.227Z,65.40
2018-07-14T03:15:52.487Z,65.20
2018-07-14T03:18:22.679Z,65.20
2018-07-14T03:20:52.891Z,65.00
2018-07-14T03:23:27.279Z,64.90
2018-07-14T03:25:57.753Z,64.90
2018-07-14T03:28:28.051Z,64.90
2018-07-14T03:30:59.517Z,64.80
2018-07-14T03:33:29.737Z,64.80
2018-07-14T03:36:00.103Z,64.30
2018-07-14T03:38:30.374Z,64.90
2018-07-14T03:41:00.661Z,64.70
2018-07-14T03:43:31.004Z,64.60
2018-07-14T03:46:01.286Z,64.50
2018-07-14T03:48:31.526Z,64.50
2018-07-14T03:51:01.829Z,64.40
2018-07-14T03:53:32.103Z,64.70
2018-07-14T03:56:02.539Z,64.40
2018-07-14T03:58:32.803Z,64.20
2018-07-14T04:01:03.100Z,64.10
2018-07-14T04:03:34.459Z,64.30
2018-07-14T04:06:06.239Z,64.20
2018-07-14T04:08:36.867Z,64.20
2018-07-14T04:11:07.167Z,64.10
2018-07-14T04:16:07.770Z,64.60
2018-07-14T04:18:38.134Z,64.60
2018-07-14T04:23:38.282Z,65.50
2018-07-14T04:26:08.504Z,66.00
2018-07-14T04:28:39.223Z,65.90
2018-07-14T04:33:39.568Z,66.00
2018-07-14T04:36:09.786Z,65.60
2018-07-14T04:38:40.147Z,65.50
2018-07-14T04:41:10.350Z,65.40
2018-07-14T04:43:40.850Z,65.40
2018-07-14T04:46:11.069Z,65.00
2018-07-14T04:48:41.507Z,64.90
2018-07-14T04:51:12.320Z,64.90
2018-07-14T04:53:42.803Z,64.70
2018-07-14T04:56:13.002Z,64.70
2018-07-14T04:58:43.367Z,64.60
2018-07-14T05:01:13.569Z,64.40
2018-07-14T05:03:44.110Z,64.40
2018-07-14T05:06:14.298Z,64.70
2018-07-14T05:08:44.570Z,64.40
2018-07-14T05:11:14.776Z,63.80
2018-07-14T05:13:45.015Z,63.10
2018-07-14T05:16:15.213Z,62.60
2018-07-14T05:18:45.434Z,62.60
2018-07-14T05:21:15.668Z,62.10
2018-07-14T05:23:46.062Z,61.70
2018-07-14T05:26:16.266Z,61.00
2018-07-14T05:31:16.447Z,60.90
2018-07-14T05:33:46.694Z,60.80
2018-07-14T05:36:16.951Z,60.20
2018-07-14T05:38:47.197Z,59.70
2018-07-14T05:41:17.436Z,59.80
2018-07-14T05:43:47.751Z,59.40
2018-07-14T05:46:18.060Z,59.30
2018-07-14T05:48:48.418Z,59.20
2018-07-14T05:51:18.728Z,59.60
2018-07-14T05:53:49.001Z,59.50
2018-07-14T05:56:19.326Z,59.90
2018-07-14T05:58:49.721Z,59.90
2018-07-14T06:01:20.174Z,60.00
2018-07-14T06:03:50.662Z,59.40
2018-07-14T06:06:21.139Z,59.00
2018-07-14T06:08:51.739Z,59.00
2018-07-14T06:11:22.026Z,58.90
2018-07-14T06:13:52.239Z,58.40
2018-07-14T06:16:22.627Z,57.80
2018-07-14T06:18:52.867Z,57.20
2018-07-14T06:21:23.192Z,56.20
2018-07-14T06:23:53.484Z,55.80
2018-07-14T06:26:23.737Z,55.90
2018-07-14T06:28:54.152Z,55.30
2018-07-14T06:31:24.419Z,55.20
2018-07-14T06:33:54.626Z,55.10
2018-07-14T06:36:24.838Z,56.40
2018-07-14T06:38:55.060Z,56.20
2018-07-14T06:41:25.343Z,54.80
2018-07-14T06:43:56.083Z,54.00
2018-07-14T06:46:26.886Z,53.20
2018-07-14T06:48:57.139Z,53.40
2018-07-14T06:51:28.305Z,52.20
2018-07-14T06:53:58.652Z,52.00
2018-07-14T06:56:29.496Z,52.20
2018-07-14T06:59:00.559Z,51.30
2018-07-14T07:01:30.939Z,50.30
2018-07-14T07:04:03.351Z,50.50
2018-07-14T07:06:35.656Z,50.50
2018-07-14T07:09:07.345Z,50.40
2018-07-14T07:11:37.707Z,50.50
2018-07-14T07:14:13.311Z,50.30
2018-07-14T07:16:45.654Z,49.90
2018-07-14T07:19:16.043Z,48.90
2018-07-14T07:21:46.591Z,49.50
2018-07-14T07:24:16.936Z,50.50
2018-07-14T07:26:47.876Z,50.90
2018-07-14T07:29:20.569Z,51.60
2018-07-14T07:31:53.166Z,53.50
2018-07-14T07:34:24.035Z,52.70
2018-07-14T07:36:56.470Z,51.10
2018-07-14T07:39:27.150Z,50.50
2018-07-14T07:41:57.938Z,50.70
2018-07-14T07:44:28.217Z,50.60
2018-07-14T07:46:58.808Z,49.70
2018-07-14T07:49:29.059Z,49.20
2018-07-14T07:52:04.091Z,48.20
2018-07-14T07:54:34.855Z,47.70
2018-07-14T07:57:06.280Z,46.90
2018-07-14T07:59:37.928Z,44.40
2018-07-14T08:02:09.018Z,44.10
2018-07-14T08:04:40.409Z,46.00
2018-07-14T08:07:11.653Z,45.20
2018-07-14T08:10:48.289Z,44.60
2018-07-14T08:13:19.430Z,43.10
2018-07-14T08:15:49.953Z,44.30
2018-07-14T08:18:28.392Z,43.70
2018-07-14T08:20:59.353Z,44.60
2018-07-14T08:23:31.348Z,44.00
2018-07-14T08:26:01.587Z,44.20
2018-07-14T08:28:33.017Z,43.70
2018-07-14T08:31:09.418Z,42.20
2018-07-14T08:33:40.509Z,40.90
2018-07-14T08:36:10.942Z,40.00
2018-07-14T08:38:41.235Z,37.80
2018-07-14T08:41:11.698Z,37.40
2018-07-14T08:43:42.884Z,37.70
2018-07-14T08:46:13.174Z,38.30
2018-07-14T08:48:46.125Z,37.80
2018-07-14T08:51:17.007Z,38.50
2018-07-14T08:53:47.247Z,39.30
2018-07-14T08:56:17.683Z,38.10
2018-07-14T08:58:48.246Z,37.60
2018-07-14T09:03:50.538Z,38.30
2018-07-14T09:06:21.305Z,36.40
2018-07-14T09:08:51.646Z,36.30
2018-07-14T09:11:21.922Z,35.80
2018-07-14T09:13:52.686Z,35.70
2018-07-14T09:16:23.299Z,35.40
2018-07-14T09:18:53.557Z,35.50
2018-07-14T09:21:24.428Z,35.40
2018-07-14T09:23:54.670Z,35.10
2018-07-14T09:26:24.928Z,37.70
2018-07-14T09:28:55.453Z,39.50
2018-07-14T09:31:25.835Z,44.10
2018-07-14T09:33:56.319Z,47.60
2018-07-14T09:36:26.538Z,49.80
2018-07-14T09:38:56.832Z,51.40
2018-07-14T09:41:27.121Z,54.20
2018-07-14T09:43:57.414Z,58.40
2018-07-14T09:46:27.663Z,61.90
2018-07-14T09:48:57.940Z,64.00
2018-07-14T09:51:28.174Z,64.40
2018-07-14T09:53:59.277Z,64.90
2018-07-14T09:56:29.538Z,65.30
2018-07-14T09:58:59.859Z,65.70
2018-07-14T10:01:30.147Z,67.40
2018-07-14T10:04:00.391Z,64.00
2018-07-14T10:06:30.918Z,60.90
2018-07-14T10:09:01.403Z,63.30
2018-07-14T10:11:31.626Z,64.90
2018-07-14T10:14:01.847Z,65.90
2018-07-14T10:16:32.127Z,66.80
2018-07-14T10:19:02.551Z,67.30
2018-07-14T10:21:32.812Z,70.80
2018-07-14T10:24:03.090Z,71.20
2018-07-14T10:26:33.289Z,67.80
2018-07-14T10:29:03.637Z,66.50
2018-07-14T10:31:33.841Z,62.80
2018-07-14T10:34:04.228Z,61.20
2018-07-14T10:36:34.851Z,61.20
2018-07-14T10:39:06.207Z,57.60
2018-07-14T10:41:36.703Z,53.40
2018-07-14T10:44:08.949Z,52.40
2018-07-14T10:46:40.525Z,52.00
2018-07-14T10:49:10.808Z,52.60
2018-07-14T10:51:41.064Z,52.50
2018-07-14T10:54:12.312Z,51.90
2018-07-14T10:56:42.635Z,51.20
2018-07-14T10:59:13.018Z,49.80
2018-07-14T11:01:43.778Z,47.50
2018-07-14T11:04:14.246Z,48.20
2018-07-14T11:06:44.687Z,47.90
2018-07-14T11:09:17.050Z,48.10
2018-07-14T11:11:50.276Z,48.50
2018-07-14T11:14:21.218Z,47.20
2018-07-14T11:16:51.595Z,45.10
2018-07-14T11:19:21.875Z,42.50
2018-07-14T11:21:52.113Z,42.30
2018-07-14T11:24:22.450Z,41.00
2018-07-14T11:26:52.707Z,42.80
2018-07-14T11:29:23.016Z,42.20
2018-07-14T11:31:53.270Z,42.70
2018-07-14T11:34:30.272Z,42.50
2018-07-14T11:37:03.640Z,45.40
2018-07-14T11:39:35.647Z,41.70
2018-07-14T11:42:06.374Z,41.70
2018-07-14T11:44:36.769Z,41.40
2018-07-14T11:47:07.379Z,39.20
2018-07-14T11:49:37.748Z,39.50
2018-07-14T11:52:08.255Z,37.90
2018-07-14T11:54:38.530Z,38.40
2018-07-14T11:57:10.428Z,38.10
2018-07-14T11:59:42.054Z,36.00
2018-07-14T12:02:12.551Z,35.50
2018-07-14T12:07:12.769Z,35.30
2018-07-14T12:09:43.218Z,34.70
2018-07-14T12:12:14.688Z,34.90
2018-07-14T12:14:45.512Z,32.90
2018-07-14T12:17:18.111Z,31.90
2018-07-14T12:19:49.018Z,31.30
2018-07-14T12:22:19.933Z,34.60
2018-07-14T12:24:50.645Z,30.80
2018-07-14T12:27:22.201Z,30.60
2018-07-14T12:29:55.486Z,29.60
2018-07-14T12:35:11.364Z,26.80
2018-07-14T12:37:41.627Z,27.30
2018-07-14T12:40:11.991Z,26.30
2018-07-14T12:42:43.775Z,24.80
2018-07-14T12:45:39.915Z,26.40
2018-07-14T12:48:23.953Z,25.00
2018-07-14T12:51:06.930Z,25.20
2018-07-14T12:53:47.241Z,23.70
2018-07-14T12:56:32.518Z,23.40
2018-07-14T12:59:07.487Z,22.90
2018-07-14T13:01:45.381Z,23.80
2018-07-14T13:04:23.875Z,23.90
2018-07-14T13:06:57.818Z,22.30
2018-07-14T13:09:43.815Z,22.50
2018-07-14T13:12:18.989Z,23.90
2018-07-14T13:15:09.049Z,23.10
2018-07-14T13:17:55.103Z,23.00
2018-07-14T13:20:37.873Z,21.50
2018-07-14T13:28:03.586Z,20.70
2018-07-14T13:30:34.266Z,21.00
2018-07-14T13:33:04.854Z,19.80
2018-07-14T13:35:35.845Z,19.70
2018-07-14T13:38:22.273Z,20.00
2018-07-14T13:40:52.563Z,21.00
2018-07-14T13:43:23.058Z,20.30
2018-07-14T13:45:54.406Z,19.50
2018-07-14T13:48:31.337Z,20.00
2018-07-14T13:51:01.618Z,21.40
2018-07-14T13:53:42.183Z,21.30
2018-07-14T13:56:12.849Z,22.20
2018-07-14T13:58:43.067Z,22.40
2018-07-14T14:01:13.451Z,22.00
2018-07-14T14:03:43.735Z,22.30
2018-07-14T14:06:14.635Z,23.20
2018-07-14T14:08:44.930Z,21.20
2018-07-14T14:11:15.722Z,21.90
2018-07-14T14:13:46.027Z,24.10
2018-07-14T14:16:23.488Z,21.50
2018-07-14T14:18:54.458Z,20.40
2018-07-14T14:21:25.267Z,19.50
2018-07-14T14:23:55.802Z,19.30
2018-07-14T14:26:27.660Z,18.80
2018-07-14T14:28:58.050Z,18.30
2018-07-14T14:31:29.044Z,18.30
2018-07-14T14:33:59.477Z,18.10
2018-07-14T14:36:31.012Z,18.00
2018-07-14T14:39:01.834Z,18.70
2018-07-14T14:41:34.077Z,20.60
2018-07-14T14:44:04.850Z,21.30
2018-07-14T14:46:35.199Z,22.30
2018-07-14T14:49:05.865Z,21.50
2018-07-14T14:51:36.158Z,23.10
2018-07-14T14:54:06.550Z,22.40
2018-07-14T14:56:37.142Z,23.10
2018-07-14T14:59:08.566Z,23.20
2018-07-14T15:01:40.294Z,25.00
2018-07-14T15:04:11.126Z,23.30
2018-07-14T15:06:41.510Z,24.40
2018-07-14T15:09:11.793Z,24.70
2018-07-14T15:11:43.103Z,23.70
2018-07-14T15:14:13.325Z,22.80
2018-07-14T15:16:43.826Z,22.80
2018-07-14T15:19:14.059Z,22.20
2018-07-14T15:21:44.480Z,22.20
2018-07-14T15:24:14.969Z,21.70
2018-07-14T15:26:45.648Z,21.70
2018-07-14T15:29:16.033Z,21.40
2018-07-14T15:31:46.654Z,22.20
2018-07-14T15:34:17.403Z,22.60
2018-07-14T15:36:48.389Z,20.90
2018-07-14T15:39:19.618Z,22.20
2018-07-14T15:41:50.209Z,22.00
2018-07-14T15:44:21.597Z,21.10
2018-07-14T15:46:54.189Z,20.80
2018-07-14T15:49:24.683Z,20.40
2018-07-14T15:51:57.594Z,20.80
2018-07-14T15:54:29.683Z,21.40
2018-07-14T15:57:00.377Z,20.80
2018-07-14T15:59:31.779Z,21.40
2018-07-14T16:02:06.632Z,21.10
2018-07-14T16:04:38.307Z,20.80
2018-07-14T16:07:09.108Z,21.70
2018-07-14T16:09:39.314Z,22.80
2018-07-14T16:12:09.782Z,23.00
2018-07-14T16:14:40.463Z,22.40
2018-07-14T16:17:11.946Z,23.60
2018-07-14T16:19:42.806Z,24.50
2018-07-14T16:22:13.612Z,23.60
2018-07-14T16:24:43.977Z,23.70
2018-07-14T16:27:14.483Z,22.80
2018-07-14T16:29:44.738Z,24.30
2018-07-14T16:32:15.136Z,28.30
2018-07-14T16:34:46.372Z,29.90
2018-07-14T16:37:17.093Z,29.10
2018-07-14T16:39:47.279Z,30.20
2018-07-14T16:42:17.532Z,30.30
2018-07-14T16:44:47.994Z,29.50
2018-07-14T16:47:18.751Z,29.70
2018-07-14T16:49:49.294Z,29.70
2018-07-14T16:52:25.397Z,31.50
2018-07-14T16:55:02.294Z,32.30
2018-07-14T16:57:32.610Z,34.20
2018-07-14T17:00:03.021Z,35.10
2018-07-14T17:02:33.341Z,34.80
2018-07-14T17:05:03.627Z,34.40
2018-07-14T17:07:33.935Z,34.70
2018-07-14T17:10:04.232Z,33.60
2018-07-14T17:12:34.883Z,34.90
2018-07-14T17:15:05.586Z,35.20
2018-07-14T17:17:36.467Z,35.90
2018-07-14T17:20:07.799Z,36.00
2018-07-14T17:22:41.496Z,35.60
2018-07-14T17:25:12.875Z,37.20
2018-07-14T17:27:43.559Z,37.20
2018-07-14T17:30:15.009Z,38.30
2018-07-14T17:32:45.324Z,39.20
2018-07-14T17:35:16.273Z,40.50
2018-07-14T17:37:52.147Z,40.30
2018-07-14T17:40:25.264Z,42.20
2018-07-14T17:42:55.936Z,43.30
2018-07-14T17:45:26.406Z,43.30
2018-07-14T17:47:57.826Z,43.50
2018-07-14T17:50:28.103Z,43.30
2018-07-14T17:52:58.466Z,43.40
2018-07-14T17:55:28.753Z,43.50
2018-07-14T17:57:59.158Z,43.40
2018-07-14T18:00:29.398Z,44.70
2018-07-14T18:02:59.718Z,45.00
2018-07-14T18:05:30.102Z,44.60
2018-07-14T18:08:00.407Z,44.40
2018-07-14T18:10:30.730Z,45.10
2018-07-14T18:13:01.019Z,45.40
2018-07-14T18:15:31.284Z,45.50
2018-07-14T18:18:01.629Z,45.30
2018-07-14T18:20:31.940Z,45.50
2018-07-14T18:23:02.194Z,45.50
2018-07-14T18:25:32.579Z,46.60
2018-07-14T18:28:02.826Z,47.40
2018-07-14T18:30:33.380Z,47.80
2018-07-14T18:33:03.692Z,47.80
2018-07-14T18:35:33.934Z,48.30
2018-07-14T18:38:04.140Z,48.80
2018-07-14T18:40:34.916Z,49.20
2018-07-14T18:43:05.444Z,49.20
2018-07-14T18:45:35.819Z,49.50
2018-07-14T18:48:06.463Z,49.80
2018-07-14T18:50:36.902Z,49.90
2018-07-14T18:53:07.829Z,50.70
2018-07-14T18:55:38.246Z,51.10
2018-07-14T18:58:08.570Z,51.60
2018-07-14T19:00:39.054Z,52.00
2018-07-14T19:03:09.551Z,52.80
2018-07-14T19:05:39.923Z,52.90
2018-07-14T19:08:10.374Z,52.70
2018-07-14T19:10:40.724Z,53.40
2018-07-14T19:13:11.503Z,52.80
2018-07-14T19:15:42.237Z,52.60
2018-07-14T19:18:12.501Z,52.90
2018-07-14T19:20:42.999Z,52.90
2018-07-14T19:23:13.271Z,52.80
2018-07-14T19:25:43.674Z,53.10
2018-07-14T19:28:13.995Z,54.20
2018-07-14T19:30:45.688Z,54.50
2018-07-14T19:33:17.089Z,54.50
2018-07-14T19:35:47.891Z,54.70
2018-07-14T19:38:18.748Z,54.80
2018-07-14T19:40:50.440Z,55.00
2018-07-14T19:43:21.340Z,55.50
2018-07-14T19:45:53.258Z,55.90
2018-07-14T19:48:25.913Z,55.80
2018-07-14T19:50:56.626Z,56.10
2018-07-14T19:53:27.271Z,55.70
2018-07-14T19:56:00.691Z,56.20
2018-07-14T19:58:31.256Z,56.60
2018-07-14T20:01:01.939Z,56.80
2018-07-14T20:06:14.347Z,57.40
2018-07-14T20:08:44.607Z,57.60
2018-07-14T20:11:14.906Z,57.40
2018-07-14T20:13:45.170Z,57.40
2018-07-14T20:16:15.570Z,57.90
2018-07-14T20:18:45.826Z,58.10
2018-07-14T20:21:16.070Z,58.30
2018-07-14T20:23:46.394Z,58.80
2018-07-14T20:26:16.757Z,58.70
2018-07-14T20:28:47.035Z,58.70
2018-07-14T20:31:23.263Z,59.00
2018-07-14T20:33:53.594Z,59.20
2018-07-14T20:36:23.822Z,59.30
2018-07-14T20:38:54.153Z,59.30
2018-07-14T20:41:24.569Z,59.50
2018-07-14T20:43:54.808Z,59.60
2018-07-14T20:46:25.128Z,59.50
2018-07-14T20:48:55.315Z,59.50
2018-07-14T20:53:55.500Z,59.40
2018-07-14T20:56:25.750Z,59.40
2018-07-14T20:58:56.098Z,59.50
2018-07-14T21:01:26.402Z,59.70
2018-07-14T21:03:56.606Z,59.60
2018-07-14T21:06:26.903Z,59.80
2018-07-14T21:08:57.283Z,60.30
2018-07-14T21:11:27.556Z,60.40
2018-07-14T21:13:57.832Z,60.30
2018-07-14T21:16:28.112Z,60.20
2018-07-14T21:18:58.282Z,60.60
2018-07-14T21:21:28.677Z,60.80
2018-07-14T21:23:58.920Z,61.20
2018-07-14T21:26:29.183Z,61.40
2018-07-14T21:28:59.514Z,61.60
2018-07-14T21:31:29.891Z,61.60
2018-07-14T21:34:00.404Z,61.70
2018-07-14T21:36:30.676Z,61.70
2018-07-14T21:39:00.891Z,61.50
2018-07-14T21:41:31.181Z,61.80
2018-07-14T21:44:01.571Z,62.20
2018-07-14T21:46:31.838Z,62.20
2018-07-14T21:49:02.079Z,62.10
2018-07-14T21:51:32.567Z,62.40
2018-07-14T21:54:03.184Z,62.60
2018-07-14T21:56:34.079Z,62.50
2018-07-14T21:59:05.150Z,62.50
2018-07-14T22:01:41.455Z,62.50
2018-07-14T22:04:14.011Z,62.50
2018-07-14T22:07:27.707Z,62.50
2018-07-14T22:10:06.735Z,62.40
2018-07-14T22:12:47.905Z,62.10
2018-07-14T22:15:20.994Z,62.10
2018-07-14T22:17:56.450Z,62.20
2018-07-14T22:20:41.114Z,62.70
2018-07-14T22:23:12.846Z,62.60
2018-07-14T22:25:52.071Z,62.40
2018-07-14T22:28:25.739Z,62.30
2018-07-14T22:30:57.639Z,62.60
2018-07-14T22:33:36.868Z,63.20
2018-07-14T22:36:07.802Z,63.30
2018-07-14T22:38:39.048Z,63.20
2018-07-14T22:41:10.082Z,63.40
2018-07-14T22:43:40.995Z,64.00
2018-07-14T22:46:12.017Z,64.00
2018-07-14T22:48:43.528Z,64.30
2018-07-14T22:51:14.440Z,64.30
2018-07-14T22:53:45.526Z,64.20
2018-07-14T22:56:18.542Z,64.00
2018-07-14T22:58:50.133Z,63.60
2018-07-14T23:01:21.315Z,63.30
2018-07-14T23:03:53.585Z,63.60
2018-07-14T23:06:24.380Z,63.20
2018-07-14T23:08:56.968Z,63.70
2018-07-14T23:11:28.556Z,63.70
2018-07-14T23:13:59.910Z,63.60
2018-07-14T23:16:30.550Z,64.00
2018-07-14T23:19:00.811Z,63.70
2018-07-14T23:21:31.140Z,63.40
2018-07-14T23:24:01.435Z,63.30
2018-07-14T23:26:31.646Z,63.60
2018-07-14T23:29:01.999Z,64.00
2018-07-14T23:31:32.546Z,64.00
2018-07-14T23:34:02.759Z,64.10
2018-07-14T23:36:33.123Z,64.00
2018-07-14T23:39:04.843Z,64.40
2018-07-14T23:41:35.496Z,64.20
2018-07-14T23:44:06.119Z,64.10
2018-07-14T23:46:36.602Z,64.70
2018-07-14T23:49:07.149Z,65.10
2018-07-14T23:51:37.584Z,65.00
2018-07-14T23:54:07.859Z,65.40
2018-07-14T23:56:38.126Z,65.30
2018-07-14T23:59:08.300Z,65.10
